createdAt,value
2022-10-05T00:01:01.888Z,35.51
2022-10-05T00:06:04.330Z,35.68
2022-10-05T00:11:13.666Z,35.99
2022-10-05T00:16:19.720Z,36.15
2022-10-05T00:21:25.695Z,35.93
2022-10-05T00:26:33.954Z,36.18
2022-10-05T00:31:36.719Z,36.16
2022-10-05T00:36:40.599Z,36.23
2022-10-05T00:42:17.796Z,36.05
2022-10-05T00:47:43.330Z,36.31
2022-10-05T00:52:54.359Z,36.45
2022-10-05T00:58:22.072Z,36.31
2022-10-05T01:03:39.752Z,36.24
2022-10-05T01:08:59.888Z,36.45
2022-10-05T01:14:20.855Z,36.56
2022-10-05T01:19:44.947Z,36.35
2022-10-05T01:25:08.596Z,36.25
2022-10-05T01:30:20.081Z,36.41
2022-10-05T01:35:47.913Z,36.58
2022-10-05T01:41:13.716Z,36.72
2022-10-05T01:46:21.919Z,36.62
2022-10-05T01:51:53.676Z,36.56
2022-10-05T01:57:22.070Z,36.75
2022-10-05T02:02:26.463Z,37.01
2022-10-05T02:07:40.407Z,37.04
2022-10-05T02:12:45.523Z,37.05
2022-10-05T02:17:51.433Z,37.24
2022-10-05T02:23:05.886Z,37.32
2022-10-05T02:28:17.189Z,37.05
2022-10-05T02:33:30.801Z,37.51
2022-10-05T02:38:50.135Z,37.56
2022-10-05T02:44:15.374Z,37.50
2022-10-05T02:49:36.446Z,37.76
2022-10-05T02:55:01.192Z,37.70
2022-10-05T03:00:23.925Z,37.85
2022-10-05T03:05:28.585Z,37.71
2022-10-05T03:10:36.124Z,38.25
2022-10-05T03:15:59.170Z,37.83
2022-10-05T03:21:22.489Z,38.01
2022-10-05T03:26:53.938Z,38.26
2022-10-05T03:32:09.866Z,38.15
2022-10-05T03:37:23.407Z,37.94
2022-10-05T03:42:45.652Z,37.65
2022-10-05T03:48:01.825Z,37.67
2022-10-05T03:53:12.381Z,37.50
2022-10-05T03:58:22.005Z,37.38
2022-10-05T04:03:40.001Z,36.85
2022-10-05T04:09:00.813Z,36.62
2022-10-05T04:14:24.688Z,36.46
2022-10-05T04:19:38.952Z,36.48
2022-10-05T04:24:56.746Z,36.62
2022-10-05T04:30:09.202Z,36.55
2022-10-05T04:35:14.540Z,36.25
2022-10-05T04:40:42.845Z,36.57
2022-10-05T04:46:22.683Z,36.48
2022-10-05T04:51:38.782Z,36.58
2022-10-05T04:56:46.092Z,36.37
2022-10-05T05:02:07.096Z,35.77
2022-10-05T05:07:36.034Z,35.32
2022-10-05T05:13:15.592Z,34.97
2022-10-05T05:18:41.637Z,35.17
2022-10-05T05:24:39.898Z,35.31
2022-10-05T05:29:54.153Z,35.72
2022-10-05T05:35:14.847Z,35.87
2022-10-05T05:40:24.327Z,36.18
2022-10-05T05:46:02.769Z,36.20
2022-10-05T05:51:26.637Z,36.94
2022-10-05T05:56:46.165Z,37.12
2022-10-05T06:01:54.484Z,37.34
2022-10-05T06:07:01.628Z,37.22
2022-10-05T06:12:10.709Z,37.30
2022-10-05T06:17:55.267Z,37.07
2022-10-05T06:23:03.457Z,36.49
2022-10-05T06:28:18.558Z,36.44
2022-10-05T06:33:39.950Z,36.34
2022-10-05T06:38:44.856Z,35.65
2022-10-05T06:44:10.259Z,34.72
2022-10-05T06:49:19.860Z,34.37
2022-10-05T06:54:35.597Z,34.17
2022-10-05T06:59:53.617Z,33.54
2022-10-05T07:05:26.622Z,32.68
2022-10-05T07:10:41.201Z,32.33
2022-10-05T07:16:07.829Z,31.63
2022-10-05T07:21:40.074Z,31.76
2022-10-05T07:26:58.187Z,31.41
2022-10-05T07:32:15.497Z,31.45
2022-10-05T07:37:43.825Z,31.33
2022-10-05T07:42:57.871Z,31.01
2022-10-05T07:48:14.423Z,31.46
2022-10-05T07:53:33.488Z,31.13
2022-10-05T07:58:43.494Z,30.92
2022-10-05T08:03:57.849Z,30.61
2022-10-05T08:09:24.596Z,30.44
2022-10-05T08:14:53.587Z,30.31
2022-10-05T08:20:33.773Z,30.08
2022-10-05T08:25:46.733Z,30.14
2022-10-05T08:30:57.499Z,29.58
2022-10-05T08:36:12.285Z,29.61
2022-10-05T08:41:17.270Z,29.38
2022-10-05T08:46:22.432Z,29.37
2022-10-05T08:51:34.967Z,28.93
2022-10-05T08:56:51.779Z,29.23
2022-10-05T09:02:30.471Z,29.46
2022-10-05T09:07:46.210Z,29.46
2022-10-05T09:12:54.145Z,29.77
2022-10-05T09:18:18.092Z,29.80
2022-10-05T09:23:43.249Z,29.68
2022-10-05T09:28:47.967Z,29.73
2022-10-05T09:33:53.641Z,29.71
2022-10-05T09:39:05.234Z,29.55
2022-10-05T09:44:38.113Z,29.89
2022-10-05T09:50:18.355Z,29.55
2022-10-05T09:55:43.999Z,29.65
2022-10-05T10:01:33.078Z,29.61
2022-10-05T10:07:07.335Z,29.28
2022-10-05T10:12:21.395Z,29.39
2022-10-05T10:18:00.010Z,29.33
2022-10-05T10:23:26.933Z,29.54
2022-10-05T10:28:48.097Z,29.79
2022-10-05T10:34:10.602Z,29.67
2022-10-05T10:39:24.701Z,29.81
2022-10-05T10:44:55.414Z,29.83
2022-10-05T10:50:19.076Z,29.89
2022-10-05T10:55:45.771Z,29.50
2022-10-05T11:01:03.932Z,30.02
2022-10-05T11:06:35.339Z,29.79
2022-10-05T11:12:09.748Z,29.92
2022-10-05T11:17:35.856Z,29.71
2022-10-05T11:22:53.312Z,29.53
2022-10-05T11:27:55.682Z,29.09
2022-10-05T11:33:03.857Z,29.38
2022-10-05T11:38:21.012Z,29.28
2022-10-05T11:43:48.107Z,29.47
2022-10-05T11:49:00.910Z,29.77
2022-10-05T11:54:20.556Z,30.12
2022-10-05T11:59:27.252Z,29.98
2022-10-05T12:04:47.473Z,30.28
2022-10-05T12:10:11.034Z,30.50
2022-10-05T12:15:25.270Z,29.96
2022-10-05T12:20:41.879Z,29.63
2022-10-05T12:26:11.510Z,29.35
2022-10-05T12:31:49.011Z,29.45
2022-10-05T12:37:04.043Z,29.17
2022-10-05T12:42:40.883Z,29.48
2022-10-05T12:48:07.818Z,29.22
2022-10-05T12:53:29.343Z,29.52
2022-10-05T12:59:00.287Z,29.37
2022-10-05T13:04:29.100Z,29.16
2022-10-05T13:10:00.206Z,29.04
2022-10-05T13:15:16.019Z,28.73
2022-10-05T13:20:34.263Z,28.31
2022-10-05T13:25:44.038Z,28.03
2022-10-05T13:31:15.734Z,27.80
2022-10-05T13:37:16.912Z,27.51
2022-10-05T13:42:38.633Z,27.43
2022-10-05T13:48:28.782Z,27.50
2022-10-05T13:53:49.249Z,26.97
2022-10-05T13:59:33.676Z,27.04
2022-10-05T14:04:58.791Z,26.96
2022-10-05T14:10:05.355Z,26.54
2022-10-05T14:15:29.111Z,26.69
2022-10-05T14:20:34.829Z,26.65
2022-10-05T14:25:50.773Z,26.67
2022-10-05T14:31:14.056Z,26.87
2022-10-05T14:36:35.465Z,26.42
2022-10-05T14:41:48.050Z,26.79
2022-10-05T14:46:55.922Z,27.13
2022-10-05T14:51:59.043Z,27.30
2022-10-05T14:57:13.032Z,27.63
2022-10-05T15:02:36.496Z,28.10
2022-10-05T15:07:44.496Z,28.96
2022-10-05T15:12:48.779Z,29.22
2022-10-05T15:17:55.743Z,29.52
2022-10-05T15:23:35.627Z,29.91
2022-10-05T15:28:49.682Z,30.97
2022-10-05T15:34:18.663Z,31.66
2022-10-05T15:39:37.672Z,32.62
2022-10-05T15:44:39.770Z,33.21
2022-10-05T15:49:51.009Z,34.38
2022-10-05T15:55:09.104Z,34.93
2022-10-05T16:00:14.053Z,35.97
2022-10-05T16:05:56.660Z,36.54
2022-10-05T16:10:59.922Z,37.13
2022-10-05T16:16:21.612Z,37.48
2022-10-05T16:21:32.389Z,37.95
2022-10-05T16:26:46.203Z,38.24
2022-10-05T16:32:00.874Z,38.28
2022-10-05T16:37:41.699Z,38.60
2022-10-05T16:43:09.666Z,38.80
2022-10-05T16:48:21.087Z,38.88
2022-10-05T16:53:47.787Z,38.68
2022-10-05T16:58:58.834Z,38.83
2022-10-05T17:04:29.905Z,38.83
2022-10-05T17:09:50.804Z,38.90
2022-10-05T17:15:29.654Z,38.97
2022-10-05T17:20:58.497Z,38.99
2022-10-05T17:26:28.321Z,39.24
2022-10-05T17:31:32.394Z,39.21
2022-10-05T17:36:43.653Z,39.49
2022-10-05T17:41:47.204Z,39.60
2022-10-05T17:46:51.938Z,40.21
2022-10-05T17:52:12.889Z,39.88
2022-10-05T17:57:23.128Z,39.75
2022-10-05T18:02:43.141Z,40.12
2022-10-05T18:07:50.544Z,40.19
2022-10-05T18:13:05.045Z,40.24
2022-10-05T18:18:55.089Z,40.20
2022-10-05T18:24:00.025Z,40.48
2022-10-05T18:29:39.920Z,40.82
2022-10-05T18:35:13.670Z,41.00
2022-10-05T18:40:56.022Z,41.10
2022-10-05T18:46:04.656Z,41.26
2022-10-05T18:51:41.920Z,41.47
2022-10-05T18:56:46.947Z,41.73
2022-10-05T19:02:01.592Z,41.78
2022-10-05T19:07:24.618Z,42.04
2022-10-05T19:12:32.490Z,42.41
2022-10-05T19:17:49.494Z,42.32
2022-10-05T19:23:10.268Z,42.44
2022-10-05T19:28:18.477Z,42.72
2022-10-05T19:33:29.331Z,42.77
2022-10-05T19:39:09.632Z,42.82
2022-10-05T19:44:28.384Z,43.07
2022-10-05T19:49:50.611Z,43.08
2022-10-05T19:55:21.787Z,43.68
2022-10-05T20:00:35.722Z,44.26
2022-10-05T20:05:38.441Z,45.43
2022-10-05T20:10:40.653Z,45.93
2022-10-05T20:16:27.924Z,46.42
2022-10-05T20:21:52.415Z,46.82
2022-10-05T20:27:16.179Z,47.52
2022-10-05T20:32:18.902Z,47.82
2022-10-05T20:37:21.226Z,48.00
2022-10-05T20:42:24.349Z,48.01
2022-10-05T20:47:27.338Z,48.22
2022-10-05T20:52:29.819Z,48.27
2022-10-05T20:57:32.116Z,48.20
2022-10-05T21:02:34.442Z,48.27
2022-10-05T21:07:36.899Z,48.17
2022-10-05T21:12:39.100Z,48.16
2022-10-05T21:17:41.629Z,47.98
2022-10-05T21:22:44.164Z,48.21
2022-10-05T21:27:49.159Z,48.23
2022-10-05T21:32:51.441Z,48.55
2022-10-05T21:37:53.958Z,48.73
2022-10-05T21:42:56.134Z,48.61
2022-10-05T21:47:58.998Z,48.90
2022-10-05T21:53:04.298Z,49.83
2022-10-05T21:58:06.858Z,49.78
2022-10-05T22:03:09.302Z,50.03
2022-10-05T22:08:25.812Z,49.60
2022-10-05T22:13:39.581Z,50.00
2022-10-05T22:18:43.175Z,49.68
2022-10-05T22:23:46.698Z,50.06
2022-10-05T22:28:49.360Z,49.88
2022-10-05T22:33:52.076Z,50.29
2022-10-05T22:38:54.548Z,49.81
2022-10-05T22:43:56.871Z,49.86
2022-10-05T22:48:59.439Z,49.81
2022-10-05T22:54:02.260Z,49.53
2022-10-05T22:59:04.678Z,49.60
2022-10-05T23:04:09.135Z,49.83
2022-10-05T23:09:11.387Z,49.92
2022-10-05T23:14:13.764Z,49.45
2022-10-05T23:19:16.210Z,49.29
2022-10-05T23:24:18.556Z,49.14
2022-10-05T23:29:20.723Z,48.94
2022-10-05T23:34:22.926Z,49.00
2022-10-05T23:39:25.191Z,49.03
2022-10-05T23:44:27.437Z,49.51
2022-10-05T23:49:29.744Z,49.80
2022-10-05T23:54:31.894Z,49.67
2022-10-05T23:59:34.237Z,49.75
